Time,TemperatureF,DewpointF,PressureIn,WindDirection,WindDirectionDegrees,WindSpeedMPH,WindSpeedGustMPH,Humidity,HourlyPrecipIn,Conditions,Clouds,dailyrainin,SoftwareType,DateUTC
2013-08-11 00:04:00,70.0,61.7,28.56,SSE,166,0.0,0.0,75,0.00,,---,0.00,VWS V14.01,2013-08-11 05:04:00,
2013-08-11 00:10:00,70.0,62.1,28.56,SSE,166,0.0,0.0,76,0.00,,---,0.00,VWS V14.01,2013-08-11 05:10:00,
2013-08-11 00:15:00,69.8,61.9,28.56,SSE,163,0.0,0.0,76,0.00,,---,0.00,VWS V14.01,2013-08-11 05:15:00,
2013-08-11 00:20:00,69.8,61.9,28.56,SSE,163,0.0,0.0,76,0.00,,---,0.00,VWS V14.01,2013-08-11 05:20:00,
2013-08-11 00:25:00,69.8,61.9,28.56,SSE,163,0.0,0.0,76,0.00,,---,0.00,VWS V14.01,2013-08-11 05:25:00,
2013-08-11 00:31:00,69.8,62.3,28.56,SSE,167,0.0,3.1,77,0.00,,---,0.00,VWS V14.01,2013-08-11 05:31:00,
2013-08-11 00:37:00,69.8,62.3,28.56,SSE,167,0.0,3.1,77,0.00,,---,0.00,VWS V14.01,2013-08-11 05:37:00,
2013-08-11 00:42:00,69.6,62.1,28.56,SSE,167,0.0,3.1,77,0.00,,---,0.00,VWS V14.01,2013-08-11 05:42:00,
2013-08-11 00:48:00,69.6,62.5,28.56,SSE,167,0.0,3.1,78,0.00,,---,0.00,VWS V14.01,2013-08-11 05:48:00,
2013-08-11 00:54:00,69.4,62.3,28.56,SSE,167,0.0,3.1,78,0.00,,---,0.00,VWS V14.01,2013-08-11 05:54:00,
2013-08-11 00:59:00,69.3,62.1,28.56,SSE,167,0.0,3.1,78,0.00,,---,0.00,VWS V14.01,2013-08-11 05:59:00,
2013-08-11 01:04:00,69.3,62.1,28.56,SSE,167,0.0,2.7,78,0.00,,---,0.00,VWS V14.01,2013-08-11 06:04:00,
2013-08-11 01:11:00,69.1,62.3,28.59,SSE,167,0.0,2.7,79,0.00,,---,0.00,VWS V14.01,2013-08-11 06:11:00,
2013-08-11 01:16:00,68.9,62.1,28.59,SSE,167,0.0,2.7,79,0.00,,---,0.00,VWS V14.01,2013-08-11 06:16:00,
2013-08-11 01:21:00,68.9,62.1,28.59,SSE,167,0.0,2.7,79,0.00,,---,0.00,VWS V14.01,2013-08-11 06:21:00,
2013-08-11 01:27:00,68.7,62.0,28.59,SSE,167,0.0,2.7,79,0.00,,---,0.00,VWS V14.01,2013-08-11 06:27:00,
2013-08-11 01:32:00,68.7,62.3,28.59,SSE,167,0.0,2.7,80,0.00,,---,0.00,VWS V14.01,2013-08-11 06:32:00,
2013-08-11 01:37:00,68.7,62.3,28.59,SSE,167,0.0,2.7,80,0.00,,---,0.00,VWS V14.01,2013-08-11 06:37:00,
2013-08-11 01:43:00,68.5,62.1,28.59,SSE,167,0.0,2.7,80,0.00,,---,0.00,VWS V14.01,2013-08-11 06:43:00,
2013-08-11 01:49:00,68.5,62.1,28.59,SSE,167,0.0,2.7,80,0.00,,---,0.00,VWS V14.01,2013-08-11 06:49:00,
2013-08-11 01:55:00,68.5,62.5,28.59,SSE,167,0.0,2.7,81,0.00,,---,0.00,VWS V14.01,2013-08-11 06:55:00,
2013-08-11 02:00:00,68.5,62.5,28.59,SSE,167,0.0,0.0,81,0.00,,---,0.00,VWS V14.01,2013-08-11 07:00:00,
2013-08-11 02:05:00,68.5,62.5,28.59,SSE,167,0.0,0.0,81,0.00,,---,0.00,VWS V14.01,2013-08-11 07:05:00,
2013-08-11 02:11:00,68.5,62.5,28.59,SSE,167,0.0,0.0,81,0.00,,---,0.00,VWS V14.01,2013-08-11 07:11:00,
2013-08-11 02:16:00,68.5,62.5,28.59,SSE,167,0.0,0.0,81,0.00,,---,0.00,VWS V14.01,2013-08-11 07:16:00,
2013-08-11 02:21:00,68.4,62.7,28.59,SSE,167,0.0,0.0,82,0.00,,---,0.00,VWS V14.01,2013-08-11 07:21:00,
2013-08-11 02:26:00,68.4,62.7,28.56,SSE,167,0.0,0.0,82,0.00,,---,0.00,VWS V14.01,2013-08-11 07:26:00,
2013-08-11 02:32:00,68.4,62.7,28.56,SSE,167,0.0,0.0,82,0.00,,---,0.00,VWS V14.01,2013-08-11 07:32:00,
2013-08-11 02:38:00,68.2,62.5,28.56,SSE,167,0.0,0.0,82,0.00,,---,0.00,VWS V14.01,2013-08-11 07:38:00,
2013-08-11 02:43:00,68.0,62.3,28.56,SSE,167,0.0,0.0,82,0.00,,---,0.00,VWS V14.01,2013-08-11 07:43:00,
2013-08-11 02:49:00,68.0,62.3,28.56,SSE,167,0.0,0.0,82,0.00,,---,0.00,VWS V14.01,2013-08-11 07:49:00,
2013-08-11 02:54:00,67.8,62.1,28.56,SSE,167,0.0,0.0,82,0.00,,---,0.00,VWS V14.01,2013-08-11 07:54:00,
2013-08-11 02:59:00,67.8,62.5,28.56,SSE,167,0.0,0.0,83,0.00,,---,0.00,VWS V14.01,2013-08-11 07:59:00,
2013-08-11 03:04:00,67.8,62.5,28.56,SSE,167,0.0,0.0,83,0.00,,---,0.00,VWS V14.01,2013-08-11 08:04:00,
2013-08-11 03:11:00,67.6,62.3,28.56,SSE,167,0.0,0.0,83,0.00,,---,0.00,VWS V14.01,2013-08-11 08:11:00,
2013-08-11 03:16:00,67.6,62.6,28.56,SSE,167,0.0,0.0,84,0.00,,---,0.00,VWS V14.01,2013-08-11 08:16:00,
2013-08-11 03:21:00,67.8,62.8,28.56,SSE,158,0.0,2.7,84,0.00,,---,0.00,VWS V14.01,2013-08-11 08:21:00,
2013-08-11 03:26:00,67.8,62.8,28.56,SSE,158,0.0,2.7,84,0.00,,---,0.00,VWS V14.01,2013-08-11 08:26:00,
2013-08-11 03:32:00,67.8,63.2,28.56,SSE,158,0.0,2.7,85,0.00,,---,0.00,VWS V14.01,2013-08-11 08:32:00,
2013-08-11 03:37:00,67.8,63.2,28.56,SSE,158,0.0,2.7,85,0.00,,---,0.00,VWS V14.01,2013-08-11 08:37:00,
2013-08-11 03:42:00,67.8,63.2,28.56,SSE,158,0.0,2.7,85,0.00,,---,0.00,VWS V14.01,2013-08-11 08:42:00,
2013-08-11 03:48:00,67.8,63.2,28.56,SSE,158,0.0,2.7,85,0.00,,---,0.00,VWS V14.01,2013-08-11 08:48:00,
2013-08-11 03:53:00,67.8,63.5,28.56,SSE,158,0.0,2.7,86,0.00,,---,0.00,VWS V14.01,2013-08-11 08:53:00,
2013-08-11 03:58:00,67.8,63.5,28.56,SSE,158,0.0,2.7,86,0.00,,---,0.00,VWS V14.01,2013-08-11 08:58:00,
2013-08-11 04:03:00,67.8,63.5,28.56,SSE,158,0.0,0.0,86,0.00,,---,0.00,VWS V14.01,2013-08-11 09:03:00,
2013-08-11 04:09:00,67.6,63.3,28.56,SSE,158,0.0,0.0,86,0.00,,---,0.00,VWS V14.01,2013-08-11 09:09:00,
2013-08-11 04:14:00,67.6,63.3,28.56,SSE,158,0.0,0.0,86,0.00,,---,0.00,VWS V14.01,2013-08-11 09:14:00,
2013-08-11 04:20:00,67.5,63.1,28.56,SSE,158,0.0,0.0,86,0.00,,---,0.00,VWS V14.01,2013-08-11 09:20:00,
2013-08-11 04:25:00,67.5,63.1,28.56,SSE,158,0.0,0.0,86,0.00,,---,0.00,VWS V14.01,2013-08-11 09:25:00,
2013-08-11 04:30:00,67.5,63.5,28.56,SSE,158,0.0,0.0,87,0.00,,---,0.00,VWS V14.01,2013-08-11 09:30:00,
2013-08-11 04:35:00,67.5,63.5,28.56,SSE,158,0.0,0.0,87,0.00,,---,0.00,VWS V14.01,2013-08-11 09:35:00,
2013-08-11 04:40:00,67.3,63.3,28.53,SSE,158,0.0,0.0,87,0.00,,---,0.00,VWS V14.01,2013-08-11 09:40:00,
2013-08-11 04:46:00,67.3,63.3,28.53,SSE,158,0.0,0.0,87,0.00,,---,0.00,VWS V14.01,2013-08-11 09:46:00,
2013-08-11 04:51:00,67.1,63.1,28.53,SSE,158,0.0,0.0,87,0.00,,---,0.00,VWS V14.01,2013-08-11 09:51:00,
2013-08-11 04:57:00,67.1,63.1,28.53,SSE,158,0.0,0.0,87,0.00,,---,0.00,VWS V14.01,2013-08-11 09:57:00,
2013-08-11 05:02:00,67.1,63.1,28.53,SSE,158,0.0,0.0,87,0.00,,---,0.00,VWS V14.01,2013-08-11 10:02:00,
2013-08-11 05:07:00,66.9,62.9,28.53,SSE,158,0.0,0.0,87,0.00,,---,0.00,VWS V14.01,2013-08-11 10:07:00,
2013-08-11 05:12:00,66.9,62.9,28.53,SSE,158,0.0,0.0,87,0.00,,---,0.00,VWS V14.01,2013-08-11 10:12:00,
2013-08-11 05:17:00,66.7,63.1,28.53,SSE,158,0.0,0.0,88,0.00,,---,0.00,VWS V14.01,2013-08-11 10:17:00,
2013-08-11 05:24:00,66.7,63.1,28.53,SSE,158,0.0,0.0,88,0.00,,---,0.00,VWS V14.01,2013-08-11 10:24:00,
2013-08-11 05:29:00,66.6,62.9,28.53,SSE,158,0.0,0.0,88,0.00,,---,0.00,VWS V14.01,2013-08-11 10:29:00,
2013-08-11 05:34:00,66.6,62.9,28.53,SSE,158,0.0,0.0,88,0.00,,---,0.00,VWS V14.01,2013-08-11 10:34:00,
2013-08-11 05:40:00,66.4,62.7,28.53,SSE,158,0.0,0.0,88,0.00,,---,0.00,VWS V14.01,2013-08-11 10:40:00,
2013-08-11 05:45:00,66.2,62.5,28.53,SSE,158,0.0,0.0,88,0.00,,---,0.00,VWS V14.01,2013-08-11 10:45:00,
2013-08-11 05:51:00,66.2,62.5,28.53,SSE,158,0.0,0.0,88,0.00,,---,0.00,VWS V14.01,2013-08-11 10:51:00,
2013-08-11 05:56:00,66.0,62.7,28.53,SSE,158,0.0,0.0,89,0.00,,---,0.00,VWS V14.01,2013-08-11 10:56:00,
2013-08-11 06:01:00,66.0,62.7,28.53,SSE,158,0.0,0.0,89,0.00,,---,0.00,VWS V14.01,2013-08-11 11:01:00,
2013-08-11 06:06:00,65.8,62.5,28.53,SSE,158,0.0,0.0,89,0.00,,---,0.00,VWS V14.01,2013-08-11 11:06:00,
2013-08-11 06:12:00,65.8,62.5,28.53,SSE,158,0.0,0.0,89,0.00,,---,0.00,VWS V14.01,2013-08-11 11:12:00,
2013-08-11 06:17:00,65.8,62.5,28.53,SSE,158,0.0,0.0,89,0.00,,---,0.00,VWS V14.01,2013-08-11 11:17:00,
2013-08-11 06:22:00,65.8,62.5,28.53,SSE,158,0.0,0.0,89,0.00,,---,0.00,VWS V14.01,2013-08-11 11:22:00,
2013-08-11 06:28:00,65.7,62.3,28.53,SSE,158,0.0,0.0,89,0.00,,---,0.00,VWS V14.01,2013-08-11 11:28:00,
2013-08-11 06:33:00,65.7,62.7,28.53,SSE,158,0.0,0.0,90,0.00,,---,0.00,VWS V14.01,2013-08-11 11:33:00,
2013-08-11 06:39:00,65.7,62.7,28.53,SSE,158,0.0,0.0,90,0.00,,---,0.00,VWS V14.01,2013-08-11 11:39:00,
2013-08-11 06:44:00,65.7,62.7,28.53,SSE,158,0.0,0.0,90,0.00,,---,0.00,VWS V14.01,2013-08-11 11:44:00,
2013-08-11 06:49:00,65.7,62.7,28.53,SSE,158,0.0,0.0,90,0.00,,---,0.00,VWS V14.01,2013-08-11 11:49:00,
2013-08-11 06:54:00,65.7,62.7,28.56,SSE,158,0.0,0.0,90,0.00,,---,0.00,VWS V14.01,2013-08-11 11:54:00,
2013-08-11 06:59:00,65.7,62.7,28.56,SSE,158,0.0,0.0,90,0.00,,---,0.00,VWS V14.01,2013-08-11 11:59:00,
2013-08-11 07:05:00,65.7,62.7,28.56,SSE,158,0.0,0.0,90,0.00,,---,0.00,VWS V14.01,2013-08-11 12:05:00,
2013-08-11 07:10:00,65.7,62.7,28.56,SSE,158,0.0,0.0,90,0.00,,---,0.00,VWS V14.01,2013-08-11 12:10:00,
2013-08-11 07:15:00,65.7,62.7,28.56,SSE,158,0.0,0.0,90,0.00,,---,0.00,VWS V14.01,2013-08-11 12:15:00,
2013-08-11 07:21:00,65.7,63.0,28.56,SSE,158,0.0,0.0,91,0.00,,---,0.00,VWS V14.01,2013-08-11 12:21:00,
2013-08-11 07:26:00,65.8,63.1,28.56,SSE,158,0.0,0.0,91,0.00,,---,0.00,VWS V14.01,2013-08-11 12:26:00,
2013-08-11 07:31:00,65.8,63.1,28.56,SSE,158,0.0,0.0,91,0.00,,---,0.00,VWS V14.01,2013-08-11 12:31:00,
2013-08-11 07:36:00,66.0,63.3,28.56,SSE,158,0.0,0.0,91,0.00,,---,0.00,VWS V14.01,2013-08-11 12:36:00,
2013-08-11 07:41:00,66.2,63.5,28.56,SSE,158,0.0,0.0,91,0.00,,---,0.00,VWS V14.01,2013-08-11 12:41:00,
2013-08-11 07:47:00,66.4,63.7,28.56,SSE,158,0.0,0.0,91,0.00,,---,0.00,VWS V14.01,2013-08-11 12:47:00,
2013-08-11 07:52:00,66.7,64.0,28.56,SSE,158,0.0,0.0,91,0.00,,---,0.00,VWS V14.01,2013-08-11 12:52:00,
2013-08-11 07:57:00,67.1,64.7,28.56,SSE,158,0.0,0.0,92,0.00,,---,0.00,VWS V14.01,2013-08-11 12:57:00,
2013-08-11 08:02:00,67.5,65.1,28.56,SSE,158,0.0,0.0,92,0.00,,---,0.00,VWS V14.01,2013-08-11 13:02:00,
2013-08-11 08:08:00,67.8,65.4,28.56,SSE,158,0.0,0.0,92,0.00,,---,0.00,VWS V14.01,2013-08-11 13:08:00,
2013-08-11 08:13:00,68.2,65.8,28.56,West,262,2.2,3.6,92,0.00,,---,0.00,VWS V14.01,2013-08-11 13:13:00,
2013-08-11 08:18:00,68.7,66.3,28.56,South,171,0.0,3.6,92,0.00,,---,0.00,VWS V14.01,2013-08-11 13:18:00,
2013-08-11 08:23:00,69.8,67.4,28.56,South,171,0.0,3.6,92,0.00,,---,0.00,VWS V14.01,2013-08-11 13:23:00,
2013-08-11 08:29:00,70.9,68.4,28.56,South,171,0.0,3.6,92,0.00,,---,0.00,VWS V14.01,2013-08-11 13:29:00,
2013-08-11 08:34:00,71.8,69.3,28.56,SSW,200,0.0,3.6,92,0.00,,---,0.00,VWS V14.01,2013-08-11 13:34:00,
2013-08-11 08:39:00,72.5,70.1,28.56,SSW,200,0.0,3.6,92,0.00,,---,0.00,VWS V14.01,2013-08-11 13:39:00,
2013-08-11 08:44:00,73.2,70.4,28.56,SE,140,0.0,3.6,91,0.00,,---,0.00,VWS V14.01,2013-08-11 13:44:00,
2013-08-11 08:50:00,73.9,71.2,28.56,SE,133,0.0,3.6,91,0.00,,---,0.00,VWS V14.01,2013-08-11 13:50:00,
2013-08-11 08:55:00,74.5,71.4,28.56,SE,132,2.2,4.0,90,0.00,,---,0.00,VWS V14.01,2013-08-11 13:55:00,
2013-08-11 09:00:00,74.8,71.7,28.56,SSE,155,0.0,0.0,90,0.00,,---,0.00,VWS V14.01,2013-08-11 14:00:00,
2013-08-11 09:05:00,75.4,71.9,28.56,SSE,155,0.0,3.1,89,0.00,,---,0.00,VWS V14.01,2013-08-11 14:05:00,
2013-08-11 09:10:00,75.7,71.6,28.56,SE,136,0.0,4.0,87,0.00,,---,0.00,VWS V14.01,2013-08-11 14:10:00,
2013-08-11 09:15:00,76.3,71.8,28.56,SE,137,0.0,4.0,86,0.00,,---,0.00,VWS V14.01,2013-08-11 14:15:00,
2013-08-11 09:21:00,76.8,71.6,28.56,SE,132,2.7,4.0,84,0.00,,---,0.00,VWS V14.01,2013-08-11 14:21:00,
2013-08-11 09:27:00,77.4,70.7,28.56,ESE,123,2.7,4.9,80,0.00,,---,0.00,VWS V14.01,2013-08-11 14:27:00,
2013-08-11 09:32:00,77.9,70.9,28.56,ESE,122,0.0,4.9,79,0.00,,---,0.00,VWS V14.01,2013-08-11 14:32:00,
2013-08-11 09:38:00,78.4,70.6,28.56,West,263,0.0,4.9,77,0.00,,---,0.00,VWS V14.01,2013-08-11 14:38:00,
2013-08-11 09:43:00,79.0,70.4,28.56,SE,127,3.6,4.9,75,0.00,,---,0.00,VWS V14.01,2013-08-11 14:43:00,
2013-08-11 09:48:00,79.3,69.5,28.56,SW,231,0.0,4.9,72,0.00,,---,0.00,VWS V14.01,2013-08-11 14:48:00,
2013-08-11 09:53:00,79.7,68.6,28.56,ESE,107,3.6,5.8,69,0.00,,---,0.00,VWS V14.01,2013-08-11 14:53:00,
2013-08-11 09:59:00,80.1,68.6,28.56,SSE,166,3.6,5.8,68,0.00,,---,0.00,VWS V14.01,2013-08-11 14:59:00,
2013-08-11 10:05:00,80.6,68.2,28.56,SE,146,2.7,4.0,66,0.00,,---,0.00,VWS V14.01,2013-08-11 15:05:00,
2013-08-11 10:10:00,80.8,67.5,28.56,SSE,153,4.0,4.9,64,0.00,,---,0.00,VWS V14.01,2013-08-11 15:10:00,
2013-08-11 10:15:00,81.0,67.2,28.56,ESE,104,3.6,4.9,63,0.00,,---,0.00,VWS V14.01,2013-08-11 15:15:00,
2013-08-11 10:20:00,81.3,67.1,28.56,SSW,193,2.2,5.8,62,0.00,,---,0.00,VWS V14.01,2013-08-11 15:20:00,
2013-08-11 10:25:00,81.3,66.6,28.56,SE,129,2.7,5.8,61,0.00,,---,0.00,VWS V14.01,2013-08-11 15:25:00,
2013-08-11 10:30:00,81.3,66.6,28.56,SSE,149,0.0,5.8,61,0.00,,---,0.00,VWS V14.01,2013-08-11 15:30:00,
2013-08-11 10:36:00,81.1,65.0,28.56,ESE,122,2.7,5.8,58,0.00,,---,0.00,VWS V14.01,2013-08-11 15:36:00,
2013-08-11 10:41:00,80.8,64.1,28.56,SE,127,0.0,5.8,57,0.00,,---,0.00,VWS V14.01,2013-08-11 15:41:00,
2013-08-11 10:46:00,80.6,64.0,28.56,SE,134,0.0,5.8,57,0.00,,---,0.00,VWS V14.01,2013-08-11 15:46:00,
2013-08-11 10:52:00,80.6,64.0,28.56,SE,130,2.7,5.8,57,0.00,,---,0.00,VWS V14.01,2013-08-11 15:52:00,
2013-08-11 10:57:00,81.1,65.0,28.56,South,176,3.1,5.8,58,0.00,,---,0.00,VWS V14.01,2013-08-11 15:57:00,
2013-08-11 11:03:00,81.9,65.2,28.56,East,79,4.0,5.4,57,0.00,,---,0.00,VWS V14.01,2013-08-11 16:03:00,
2013-08-11 11:09:00,82.4,64.6,28.56,SSE,160,4.0,5.4,55,0.00,,---,0.00,VWS V14.01,2013-08-11 16:09:00,
2013-08-11 11:14:00,82.6,63.2,28.56,SE,144,2.7,5.8,52,0.00,,---,0.00,VWS V14.01,2013-08-11 16:14:00,
2013-08-11 11:20:00,82.6,62.6,28.56,SW,214,2.7,5.8,51,0.00,,---,0.00,VWS V14.01,2013-08-11 16:20:00,
2013-08-11 11:25:00,82.6,62.6,28.56,ESE,107,4.0,5.8,51,0.00,,---,0.00,VWS V14.01,2013-08-11 16:25:00,
2013-08-11 11:30:00,83.3,63.3,28.56,South,177,0.0,5.8,51,0.00,,---,0.00,VWS V14.01,2013-08-11 16:30:00,
2013-08-11 11:35:00,83.8,63.8,28.56,SE,137,0.0,5.8,51,0.00,,---,0.00,VWS V14.01,2013-08-11 16:35:00,
2013-08-11 11:40:00,84.4,63.2,28.56,SE,145,3.6,5.8,49,0.00,,---,0.00,VWS V14.01,2013-08-11 16:40:00,
2013-08-11 11:46:00,84.6,62.1,28.56,ESE,111,0.0,6.3,47,0.00,,---,0.00,VWS V14.01,2013-08-11 16:46:00,
2013-08-11 11:52:00,84.4,62.0,28.56,SSE,157,3.6,8.1,47,0.00,,---,0.00,VWS V14.01,2013-08-11 16:52:00,
2013-08-11 11:57:00,84.9,65.3,28.56,WSW,253,4.0,8.1,52,0.00,,---,0.00,VWS V14.01,2013-08-11 16:57:00,
2013-08-11 12:03:00,85.3,62.2,28.56,South,182,0.0,5.4,46,0.00,,---,0.00,VWS V14.01,2013-08-11 17:03:00,
2013-08-11 12:08:00,85.5,62.3,28.56,South,190,2.7,5.4,46,0.00,,---,0.00,VWS V14.01,2013-08-11 17:08:00,
2013-08-11 12:14:00,85.8,63.3,28.56,South,189,2.7,5.4,47,0.00,,---,0.00,VWS V14.01,2013-08-11 17:14:00,
2013-08-11 12:19:00,86.0,62.8,28.56,SSW,212,3.1,5.4,46,0.00,,---,0.00,VWS V14.01,2013-08-11 17:19:00,
2013-08-11 12:24:00,85.8,62.7,28.53,WNW,294,0.0,5.4,46,0.00,,---,0.00,VWS V14.01,2013-08-11 17:24:00,
2013-08-11 12:29:00,85.3,62.2,28.53,SSE,160,2.7,5.4,46,0.00,,---,0.00,VWS V14.01,2013-08-11 17:29:00,
2013-08-11 12:34:00,84.6,61.5,28.53,SE,132,2.2,5.8,46,0.00,,---,0.00,VWS V14.01,2013-08-11 17:34:00,
2013-08-11 12:39:00,84.4,61.4,28.56,SE,139,0.0,5.8,46,0.00,,---,0.00,VWS V14.01,2013-08-11 17:39:00,
2013-08-11 12:45:00,84.4,62.0,28.56,SW,215,3.1,5.8,47,0.00,,---,0.00,VWS V14.01,2013-08-11 17:45:00,
2013-08-11 12:50:00,84.7,62.3,28.56,East,95,3.6,5.8,47,0.00,,---,0.00,VWS V14.01,2013-08-11 17:50:00,
2013-08-11 12:55:00,85.3,62.8,28.53,SSE,168,0.0,5.8,47,0.00,,---,0.00,VWS V14.01,2013-08-11 17:55:00,
2013-08-11 13:00:00,85.6,61.9,28.53,WNW,295,3.6,3.6,45,0.00,,---,0.00,VWS V14.01,2013-08-11 18:00:00,
2013-08-11 13:06:00,85.6,61.9,28.53,SE,133,2.2,5.8,45,0.00,,---,0.00,VWS V14.01,2013-08-11 18:06:00,
2013-08-11 13:12:00,85.8,62.7,28.53,ESE,104,2.7,5.8,46,0.00,,---,0.00,VWS V14.01,2013-08-11 18:12:00,
2013-08-11 13:17:00,86.4,62.5,28.53,South,189,2.7,5.8,45,0.00,,---,0.00,VWS V14.01,2013-08-11 18:17:00,
2013-08-11 13:22:00,87.1,63.2,28.53,SSW,194,0.0,5.8,45,0.00,,---,0.00,VWS V14.01,2013-08-11 18:22:00,
2013-08-11 13:27:00,87.6,63.0,28.53,SSE,166,4.9,5.8,44,0.00,,---,0.00,VWS V14.01,2013-08-11 18:27:00,
2013-08-11 13:33:00,87.8,61.2,28.53,SSE,157,3.1,5.8,41,0.00,,---,0.00,VWS V14.01,2013-08-11 18:33:00,
2013-08-11 13:38:00,87.8,60.5,28.53,ESE,112,4.0,5.8,40,0.00,,---,0.00,VWS V14.01,2013-08-11 18:38:00,
2013-08-11 13:43:00,87.8,61.9,28.53,ESE,106,4.0,5.8,42,0.00,,---,0.00,VWS V14.01,2013-08-11 18:43:00,
2013-08-11 13:49:00,88.0,62.0,28.53,SSE,165,3.1,6.3,42,0.00,,---,0.00,VWS V14.01,2013-08-11 18:49:00,
2013-08-11 13:55:00,88.2,61.5,28.53,SSE,159,3.1,6.3,41,0.00,,---,0.00,VWS V14.01,2013-08-11 18:55:00,
2013-08-11 14:00:00,88.5,61.1,28.53,East,100,2.2,6.3,40,0.00,,---,0.00,VWS V14.01,2013-08-11 19:00:00,
2013-08-11 14:05:00,88.7,61.3,28.53,SSE,164,4.9,5.8,40,0.00,,---,0.00,VWS V14.01,2013-08-11 19:05:00,
2013-08-11 14:10:00,88.7,60.6,28.53,SSE,162,2.7,5.8,39,0.00,,---,0.00,VWS V14.01,2013-08-11 19:10:00,
2013-08-11 14:15:00,88.5,59.7,28.53,SE,126,3.6,5.8,38,0.00,,---,0.00,VWS V14.01,2013-08-11 19:15:00,
2013-08-11 14:20:00,88.5,60.4,28.53,SE,138,3.1,6.3,39,0.00,,---,0.00,VWS V14.01,2013-08-11 19:20:00,
2013-08-11 14:25:00,88.5,61.1,28.50,South,173,3.1,6.3,40,0.00,,---,0.00,VWS V14.01,2013-08-11 19:25:00,
2013-08-11 14:30:00,88.7,61.3,28.50,SE,143,4.0,6.3,40,0.00,,---,0.00,VWS V14.01,2013-08-11 19:30:00,
2013-08-11 14:36:00,88.5,60.4,28.50,South,184,0.0,6.3,39,0.00,,---,0.00,VWS V14.01,2013-08-11 19:36:00,
2013-08-11 14:41:00,88.5,59.7,28.50,SE,146,4.0,6.3,38,0.00,,---,0.00,VWS V14.01,2013-08-11 19:41:00,
2013-08-11 14:46:00,88.5,59.7,28.50,South,188,3.6,6.3,38,0.00,,---,0.00,VWS V14.01,2013-08-11 19:46:00,
2013-08-11 14:51:00,88.2,59.4,28.50,SSW,197,2.7,6.3,38,0.00,,---,0.00,VWS V14.01,2013-08-11 19:51:00,
2013-08-11 14:56:00,87.6,59.6,28.50,SE,138,4.0,6.3,39,0.00,,---,0.00,VWS V14.01,2013-08-11 19:56:00,
2013-08-11 15:02:00,86.9,59.7,28.50,ESE,104,2.7,3.6,40,0.00,,---,0.00,VWS V14.01,2013-08-11 20:02:00,
2013-08-11 15:07:00,86.5,60.1,28.50,ESE,114,5.4,7.6,41,0.00,,---,0.00,VWS V14.01,2013-08-11 20:07:00,
2013-08-11 15:12:00,86.5,60.7,28.50,SSE,168,0.0,7.6,42,0.00,,---,0.00,VWS V14.01,2013-08-11 20:12:00,
2013-08-11 15:17:00,86.4,60.6,28.50,SE,128,0.0,7.6,42,0.00,,---,0.00,VWS V14.01,2013-08-11 20:17:00,
2013-08-11 15:22:00,86.4,61.2,28.50,NNW,338,3.6,7.6,43,0.00,,---,0.00,VWS V14.01,2013-08-11 20:22:00,
2013-08-11 15:27:00,86.2,61.1,28.50,East,79,3.1,7.6,43,0.00,,---,0.00,VWS V14.01,2013-08-11 20:27:00,
2013-08-11 15:33:00,85.8,60.8,28.50,SE,130,0.0,7.6,43,0.00,,---,0.00,VWS V14.01,2013-08-11 20:33:00,
2013-08-11 15:38:00,85.6,61.2,28.50,SSW,197,0.0,7.6,44,0.00,,---,0.00,VWS V14.01,2013-08-11 20:38:00,
2013-08-11 15:43:00,85.5,61.1,28.50,SSE,157,4.0,7.6,44,0.00,,---,0.00,VWS V14.01,2013-08-11 20:43:00,
2013-08-11 15:49:00,85.1,60.8,28.50,SE,145,0.0,7.6,44,0.00,,---,0.00,VWS V14.01,2013-08-11 20:49:00,
2013-08-11 15:54:00,85.3,60.9,28.50,SE,129,4.0,7.6,44,0.00,,---,0.00,VWS V14.01,2013-08-11 20:54:00,
2013-08-11 15:59:00,85.3,61.6,28.50,SE,139,3.1,7.6,45,0.00,,---,0.00,VWS V14.01,2013-08-11 20:59:00,
2013-08-11 16:04:00,85.3,60.9,28.50,South,185,2.7,4.5,44,0.00,,---,0.00,VWS V14.01,2013-08-11 21:04:00,
2013-08-11 16:09:00,85.3,61.6,28.50,South,177,2.2,4.5,45,0.00,,---,0.00,VWS V14.01,2013-08-11 21:09:00,
2013-08-11 16:14:00,85.3,62.2,28.50,SSE,155,3.1,4.5,46,0.00,,---,0.00,VWS V14.01,2013-08-11 21:14:00,
2013-08-11 16:20:00,85.5,61.7,28.50,SE,131,0.0,4.5,45,0.00,,---,0.00,VWS V14.01,2013-08-11 21:20:00,
2013-08-11 16:25:00,85.5,61.7,28.50,SSE,160,3.6,5.8,45,0.00,,---,0.00,VWS V14.01,2013-08-11 21:25:00,
2013-08-11 16:30:00,85.6,61.9,28.50,SSE,168,2.7,5.8,45,0.00,,---,0.00,VWS V14.01,2013-08-11 21:30:00,
2013-08-11 16:36:00,85.5,61.7,28.50,SSE,153,0.0,5.8,45,0.00,,---,0.00,VWS V14.01,2013-08-11 21:36:00,
2013-08-11 16:41:00,85.5,61.1,28.47,South,171,2.2,5.8,44,0.00,,---,0.00,VWS V14.01,2013-08-11 21:41:00,
2013-08-11 16:46:00,85.5,61.7,28.47,ESE,122,3.1,5.8,45,0.00,,---,0.00,VWS V14.01,2013-08-11 21:46:00,
2013-08-11 16:51:00,85.5,61.7,28.47,ESE,118,3.1,5.8,45,0.00,,---,0.00,VWS V14.01,2013-08-11 21:51:00,
2013-08-11 16:56:00,85.5,62.3,28.47,ESE,120,0.0,5.8,46,0.00,,---,0.00,VWS V14.01,2013-08-11 21:56:00,
2013-08-11 17:01:00,85.5,62.3,28.47,SE,126,2.2,4.0,46,0.00,,---,0.00,VWS V14.01,2013-08-11 22:01:00,
2013-08-11 17:06:00,85.5,62.3,28.47,SE,137,0.0,4.0,46,0.00,,---,0.00,VWS V14.01,2013-08-11 22:06:00,
2013-08-11 17:11:00,85.5,61.7,28.47,SE,131,3.6,4.9,45,0.00,,---,0.00,VWS V14.01,2013-08-11 22:11:00,
2013-08-11 17:16:00,85.5,61.7,28.47,SSE,157,3.6,4.9,45,0.00,,---,0.00,VWS V14.01,2013-08-11 22:16:00,
2013-08-11 17:22:00,85.3,61.6,28.47,SW,226,2.2,4.9,45,0.00,,---,0.00,VWS V14.01,2013-08-11 22:22:00,
2013-08-11 17:27:00,85.3,62.2,28.47,SSE,149,3.6,4.9,46,0.00,,---,0.00,VWS V14.01,2013-08-11 22:27:00,
2013-08-11 17:33:00,85.3,61.6,28.47,SSE,164,2.7,4.9,45,0.00,,---,0.00,VWS V14.01,2013-08-11 22:33:00,
2013-08-11 17:38:00,85.5,62.3,28.47,SSE,158,0.0,4.9,46,0.00,,---,0.00,VWS V14.01,2013-08-11 22:38:00,
2013-08-11 17:43:00,85.3,62.2,28.47,SSE,163,3.6,4.9,46,0.00,,---,0.00,VWS V14.01,2013-08-11 22:43:00,
2013-08-11 17:48:00,85.3,62.8,28.47,SE,143,3.1,6.3,47,0.00,,---,0.00,VWS V14.01,2013-08-11 22:48:00,
2013-08-11 17:54:00,85.3,62.8,28.47,South,175,3.1,6.3,47,0.00,,---,0.00,VWS V14.01,2013-08-11 22:54:00,
2013-08-11 17:59:00,85.1,62.6,28.47,WSW,246,0.0,6.3,47,0.00,,---,0.00,VWS V14.01,2013-08-11 22:59:00,
2013-08-11 18:05:00,84.9,63.1,28.47,SW,230,3.6,4.0,48,0.00,,---,0.00,VWS V14.01,2013-08-11 23:05:00,
2013-08-11 18:10:00,84.6,62.7,28.47,SW,220,0.0,4.9,48,0.00,,---,0.00,VWS V14.01,2013-08-11 23:10:00,
2013-08-11 18:16:00,84.2,62.4,28.47,SE,135,3.1,4.9,48,0.00,,---,0.00,VWS V14.01,2013-08-11 23:16:00,
2013-08-11 18:21:00,84.0,62.8,28.47,South,170,0.0,4.9,49,0.00,,---,0.00,VWS V14.01,2013-08-11 23:21:00,
2013-08-11 18:26:00,84.0,64.0,28.44,SE,127,0.0,4.9,51,0.00,,---,0.00,VWS V14.01,2013-08-11 23:26:00,
2013-08-11 18:31:00,83.8,63.2,28.44,ESE,118,3.6,5.4,50,0.00,,---,0.00,VWS V14.01,2013-08-11 23:31:00,
2013-08-11 18:36:00,83.7,63.1,28.44,ENE,77,0.0,5.4,50,0.00,,---,0.00,VWS V14.01,2013-08-11 23:36:00,
2013-08-11 18:41:00,83.5,63.5,28.44,SE,133,3.1,5.4,51,0.00,,---,0.00,VWS V14.01,2013-08-11 23:41:00,
2013-08-11 18:46:00,83.3,63.3,28.44,SE,133,0.0,5.4,51,0.00,,---,0.00,VWS V14.01,2013-08-11 23:46:00,
2013-08-11 18:52:00,82.9,63.0,28.44,SE,133,0.0,5.4,51,0.00,,---,0.00,VWS V14.01,2013-08-11 23:52:00,
2013-08-11 18:57:00,82.8,63.4,28.44,SSW,192,0.0,5.4,52,0.00,,---,0.00,VWS V14.01,2013-08-11 23:57:00,
2013-08-11 19:02:00,82.6,63.7,28.44,South,183,0.0,3.6,53,0.00,,---,0.00,VWS V14.01,2013-08-12 00:02:00,
2013-08-11 19:07:00,82.2,63.9,28.44,SE,124,2.2,3.6,54,0.00,,---,0.00,VWS V14.01,2013-08-12 00:07:00,
2013-08-11 19:12:00,82.0,64.3,28.44,South,178,2.7,4.0,55,0.00,,---,0.00,VWS V14.01,2013-08-12 00:12:00,
2013-08-11 19:17:00,81.9,64.6,28.44,SSE,152,2.7,4.0,56,0.00,,---,0.00,VWS V14.01,2013-08-12 00:17:00,
2013-08-11 19:22:00,81.5,64.8,28.44,SSE,157,0.0,4.0,57,0.00,,---,0.00,VWS V14.01,2013-08-12 00:22:00,
2013-08-11 19:28:00,81.3,65.1,28.44,SE,138,0.0,4.0,58,0.00,,---,0.00,VWS V14.01,2013-08-12 00:28:00,
2013-08-11 19:33:00,81.1,65.5,28.44,WSW,250,3.1,4.0,59,0.00,,---,0.00,VWS V14.01,2013-08-12 00:33:00,
2013-08-11 19:38:00,81.0,65.3,28.44,South,169,3.1,4.9,59,0.00,,---,0.00,VWS V14.01,2013-08-12 00:38:00,
2013-08-11 19:43:00,80.6,65.0,28.44,West,280,0.0,4.9,59,0.00,,---,0.00,VWS V14.01,2013-08-12 00:43:00,
2013-08-11 19:48:00,80.4,65.3,28.44,West,274,0.0,4.9,60,0.00,,---,0.00,VWS V14.01,2013-08-12 00:48:00,
2013-08-11 19:55:00,80.2,65.6,28.44,SSE,154,0.0,4.9,61,0.00,,---,0.00,VWS V14.01,2013-08-12 00:55:00,
2013-08-11 20:00:00,79.9,65.2,28.44,SSE,155,0.0,4.9,61,0.00,,---,0.00,VWS V14.01,2013-08-12 01:00:00,
2013-08-11 20:05:00,79.7,65.5,28.44,SSE,155,0.0,0.0,62,0.00,,---,0.00,VWS V14.01,2013-08-12 01:05:00,
2013-08-11 20:11:00,79.3,65.2,28.44,SSE,155,0.0,0.0,62,0.00,,---,0.00,VWS V14.01,2013-08-12 01:11:00,
2013-08-11 20:16:00,79.2,65.5,28.44,SSE,155,0.0,0.0,63,0.00,,---,0.00,VWS V14.01,2013-08-12 01:16:00,
2013-08-11 20:22:00,79.0,65.3,28.44,SSE,155,0.0,0.0,63,0.00,,---,0.00,VWS V14.01,2013-08-12 01:22:00,
2013-08-11 20:28:00,78.8,65.6,28.44,SSE,155,0.0,0.0,64,0.00,,---,0.00,VWS V14.01,2013-08-12 01:28:00,
2013-08-11 20:33:00,78.6,65.9,28.44,SE,146,2.7,3.1,65,0.00,,---,0.00,VWS V14.01,2013-08-12 01:33:00,
2013-08-11 20:38:00,78.4,65.7,28.44,SSE,147,0.0,3.1,65,0.00,,---,0.00,VWS V14.01,2013-08-12 01:38:00,
2013-08-11 20:43:00,78.3,65.5,28.44,SSE,147,0.0,3.1,65,0.00,,---,0.00,VWS V14.01,2013-08-12 01:43:00,
2013-08-11 20:49:00,78.1,65.8,28.44,SSE,147,0.0,3.1,66,0.00,,---,0.00,VWS V14.01,2013-08-12 01:49:00,
2013-08-11 20:54:00,77.9,65.6,28.44,SSE,147,0.0,3.1,66,0.00,,---,0.00,VWS V14.01,2013-08-12 01:54:00,
2013-08-11 20:59:00,77.9,65.6,28.44,SSE,147,0.0,3.1,66,0.00,,---,0.00,VWS V14.01,2013-08-12 01:59:00,
2013-08-11 21:05:00,77.7,65.9,28.44,SSE,147,0.0,0.0,67,0.00,,---,0.00,VWS V14.01,2013-08-12 02:05:00,
2013-08-11 21:10:00,77.5,65.7,28.44,SSE,147,0.0,0.0,67,0.00,,---,0.00,VWS V14.01,2013-08-12 02:10:00,
2013-08-11 21:15:00,77.5,65.7,28.44,SSE,147,0.0,0.0,67,0.00,,---,0.00,VWS V14.01,2013-08-12 02:15:00,
2013-08-11 21:20:00,77.4,66.0,28.44,SSE,147,0.0,0.0,68,0.00,,---,0.00,VWS V14.01,2013-08-12 02:20:00,
2013-08-11 21:26:00,77.2,65.8,28.44,SSE,147,0.0,0.0,68,0.00,,---,0.00,VWS V14.01,2013-08-12 02:26:00,
2013-08-11 21:31:00,77.2,65.8,28.44,SSE,147,0.0,0.0,68,0.00,,---,0.00,VWS V14.01,2013-08-12 02:31:00,
2013-08-11 21:36:00,77.0,65.6,28.44,SSE,147,0.0,0.0,68,0.00,,---,0.00,VWS V14.01,2013-08-12 02:36:00,
2013-08-11 21:42:00,77.0,65.6,28.44,SSE,147,0.0,0.0,68,0.00,,---,0.00,VWS V14.01,2013-08-12 02:42:00,
2013-08-11 21:47:00,76.8,65.9,28.44,SSE,147,0.0,0.0,69,0.00,,---,0.00,VWS V14.01,2013-08-12 02:47:00,
2013-08-11 21:53:00,76.6,65.7,28.44,NE,43,0.0,0.0,69,0.00,,---,0.00,VWS V14.01,2013-08-12 02:53:00,
2013-08-11 21:58:00,76.5,66.0,28.44,NE,53,0.0,0.0,70,0.00,,---,0.00,VWS V14.01,2013-08-12 02:58:00,
2013-08-11 22:03:00,76.3,65.8,28.44,NNE,33,0.0,0.0,70,0.00,,---,0.00,VWS V14.01,2013-08-12 03:03:00,
2013-08-11 22:08:00,76.1,65.6,28.44,NNE,33,0.0,0.0,70,0.00,,---,0.00,VWS V14.01,2013-08-12 03:08:00,
2013-08-11 22:13:00,76.1,66.0,28.44,ENE,57,0.0,0.0,71,0.00,,---,0.00,VWS V14.01,2013-08-12 03:13:00,
2013-08-11 22:19:00,75.9,65.8,28.44,ENE,59,0.0,0.0,71,0.00,,---,0.00,VWS V14.01,2013-08-12 03:19:00,
2013-08-11 22:24:00,75.9,66.2,28.44,ESE,120,0.0,0.0,72,0.00,,---,0.00,VWS V14.01,2013-08-12 03:24:00,
2013-08-11 22:29:00,75.7,66.5,28.44,North,0,0.0,0.0,73,0.00,,---,0.00,VWS V14.01,2013-08-12 03:29:00,
2013-08-11 22:34:00,75.7,66.9,28.44,North,0,0.0,0.0,74,0.00,,---,0.00,VWS V14.01,2013-08-12 03:34:00,
2013-08-11 22:39:00,75.7,66.9,28.47,North,0,0.0,0.0,74,0.00,,---,0.00,VWS V14.01,2013-08-12 03:39:00,
2013-08-11 22:44:00,75.7,66.9,28.47,NE,38,0.0,2.7,74,0.00,,---,0.00,VWS V14.01,2013-08-12 03:44:00,
2013-08-11 22:50:00,75.7,66.9,28.47,East,88,0.0,3.6,74,0.00,,---,0.00,VWS V14.01,2013-08-12 03:50:00,
2013-08-11 22:55:00,75.7,66.9,28.44,NE,43,0.0,4.0,74,0.00,,---,0.00,VWS V14.01,2013-08-12 03:55:00,
2013-08-11 23:00:00,75.7,66.9,28.44,NE,45,0.0,4.0,74,0.00,,---,0.00,VWS V14.01,2013-08-12 04:00:00,
2013-08-11 23:01:00,75.7,66.9,28.44,NE,51,3.1,4.9,74,0.00,,---,0.00,VWS V14.01,2013-08-12 04:01:00,
2013-08-11 23:04:00,75.7,66.9,28.44,East,97,4.9,4.9,74,0.00,,---,0.00,VWS V14.01,2013-08-12 04:04:00,
2013-08-11 23:10:00,75.7,66.9,28.44,ENE,63,0.0,5.8,74,0.00,,---,0.00,VWS V14.01,2013-08-12 04:10:00,
2013-08-11 23:15:00,75.6,66.7,28.44,ENE,66,0.0,5.8,74,0.00,,---,0.00,VWS V14.01,2013-08-12 04:15:00,
2013-08-11 23:20:00,75.6,66.7,28.44,ENE,66,0.0,5.8,74,0.00,,---,0.00,VWS V14.01,2013-08-12 04:20:00,
2013-08-11 23:25:00,75.4,66.5,28.44,ENE,66,0.0,5.8,74,0.00,,---,0.00,VWS V14.01,2013-08-12 04:25:00,
2013-08-11 23:30:00,75.4,66.5,28.44,ENE,68,0.0,5.8,74,0.00,,---,0.00,VWS V14.01,2013-08-12 04:30:00,
2013-08-11 23:35:00,75.2,66.3,28.44,ENE,75,0.0,5.8,74,0.00,,---,0.00,VWS V14.01,2013-08-12 04:35:00,
2013-08-11 23:40:00,75.2,66.3,28.47,ENE,75,0.0,5.8,74,0.00,,---,0.00,VWS V14.01,2013-08-12 04:40:00,
2013-08-11 23:45:00,75.2,66.3,28.47,ENE,75,0.0,5.8,74,0.00,,---,0.00,VWS V14.01,2013-08-12 04:45:00,
2013-08-11 23:51:00,75.2,66.7,28.47,ENE,75,0.0,5.8,75,0.00,,---,0.00,VWS V14.01,2013-08-12 04:51:00,
2013-08-11 23:56:00,75.0,66.6,28.47,ENE,75,0.0,5.8,75,0.00,,---,0.00,VWS V14.01,2013-08-12 04:56:00,